sensor_id;sensor_type;location;lat;lon;timestamp;P1;durP1;ratioP1;P2;durP2;ratioP2
18752;SDS011;9505;50.882;5.350;2024-03-02T00:00:03;11.77;;;1.23;;
18752;SDS011;9505;50.882;5.350;2024-03-02T00:02:39;12.85;;;1.20;;
18752;SDS011;9505;50.882;5.350;2024-03-02T00:05:09;19.13;;;1.75;;
18752;SDS011;9505;50.882;5.350;2024-03-02T00:07:37;12.43;;;1.23;;
18752;SDS011;9505;50.882;5.350;2024-03-02T00:10:07;15.55;;;1.50;;
18752;SDS011;9505;50.882;5.350;2024-03-02T00:12:37;13.02;;;1.42;;
18752;SDS011;9505;50.882;5.350;2024-03-02T00:15:13;22.27;;;6.20;;
18752;SDS011;9505;50.882;5.350;2024-03-02T00:17:52;15.95;;;2.38;;
18752;SDS011;9505;50.882;5.350;2024-03-02T00:20:18;15.00;;;2.22;;
18752;SDS011;9505;50.882;5.350;2024-03-02T00:22:47;12.75;;;2.65;;
18752;SDS011;9505;50.882;5.350;2024-03-02T00:25:13;19.05;;;2.05;;
18752;SDS011;9505;50.882;5.350;2024-03-02T00:27:38;12.18;;;1.20;;
18752;SDS011;9505;50.882;5.350;2024-03-02T00:33:09;15.68;;;2.15;;
18752;SDS011;9505;50.882;5.350;2024-03-02T00:35:35;13.82;;;1.60;;
18752;SDS011;9505;50.882;5.350;2024-03-02T00:38:05;11.93;;;1.17;;
18752;SDS011;9505;50.882;5.350;2024-03-02T00:40:31;19.60;;;1.77;;
18752;SDS011;9505;50.882;5.350;2024-03-02T00:42:57;16.50;;;1.63;;
18752;SDS011;9505;50.882;5.350;2024-03-02T00:45:24;22.58;;;2.25;;
18752;SDS011;9505;50.882;5.350;2024-03-02T00:47:51;18.08;;;2.72;;
18752;SDS011;9505;50.882;5.350;2024-03-02T00:50:18;13.98;;;1.45;;
18752;SDS011;9505;50.882;5.350;2024-03-02T00:52:44;16.70;;;2.33;;
18752;SDS011;9505;50.882;5.350;2024-03-02T00:55:10;24.52;;;2.45;;
18752;SDS011;9505;50.882;5.350;2024-03-02T00:57:36;10.65;;;1.33;;
18752;SDS011;9505;50.882;5.350;2024-03-02T01:00:03;15.00;;;1.65;;
18752;SDS011;9505;50.882;5.350;2024-03-02T01:02:33;12.90;;;1.85;;
18752;SDS011;9505;50.882;5.350;2024-03-02T01:04:59;11.88;;;1.33;;
18752;SDS011;9505;50.882;5.350;2024-03-02T01:07:24;15.07;;;1.60;;
18752;SDS011;9505;50.882;5.350;2024-03-02T01:09:50;17.83;;;1.90;;
18752;SDS011;9505;50.882;5.350;2024-03-02T01:12:16;16.60;;;1.45;;
18752;SDS011;9505;50.882;5.350;2024-03-02T01:14:41;10.23;;;1.02;;
18752;SDS011;9505;50.882;5.350;2024-03-02T01:17:07;15.15;;;1.50;;
18752;SDS011;9505;50.882;5.350;2024-03-02T01:19:32;12.75;;;1.15;;
18752;SDS011;9505;50.882;5.350;2024-03-02T01:21:58;11.32;;;1.00;;
18752;SDS011;9505;50.882;5.350;2024-03-02T01:24:24;23.17;;;4.38;;
18752;SDS011;9505;50.882;5.350;2024-03-02T01:26:50;14.63;;;1.40;;
18752;SDS011;9505;50.882;5.350;2024-03-02T01:29:15;18.58;;;1.60;;
18752;SDS011;9505;50.882;5.350;2024-03-02T01:31:41;17.50;;;1.65;;
18752;SDS011;9505;50.882;5.350;2024-03-02T01:34:10;18.77;;;2.00;;
18752;SDS011;9505;50.882;5.350;2024-03-02T01:36:37;10.18;;;1.15;;
18752;SDS011;9505;50.882;5.350;2024-03-02T01:39:03;11.45;;;1.13;;
18752;SDS011;9505;50.882;5.350;2024-03-02T01:41:28;16.80;;;1.88;;
18752;SDS011;9505;50.882;5.350;2024-03-02T01:43:54;11.35;;;1.52;;
18752;SDS011;9505;50.882;5.350;2024-03-02T01:46:19;13.10;;;1.58;;
18752;SDS011;9505;50.882;5.350;2024-03-02T01:48:45;9.80;;;1.60;;
18752;SDS011;9505;50.882;5.350;2024-03-02T01:51:10;18.17;;;1.77;;
18752;SDS011;9505;50.882;5.350;2024-03-02T01:53:36;11.45;;;1.30;;
18752;SDS011;9505;50.882;5.350;2024-03-02T01:56:02;16.35;;;1.55;;
18752;SDS011;9505;50.882;5.350;2024-03-02T01:58:28;28.33;;;2.38;;
18752;SDS011;9505;50.882;5.350;2024-03-02T02:00:54;12.80;;;1.27;;
18752;SDS011;9505;50.882;5.350;2024-03-02T02:03:19;12.52;;;1.30;;
18752;SDS011;9505;50.882;5.350;2024-03-02T02:05:45;15.27;;;1.48;;
18752;SDS011;9505;50.882;5.350;2024-03-02T02:08:12;13.05;;;1.35;;
18752;SDS011;9505;50.882;5.350;2024-03-02T02:10:38;10.45;;;1.17;;
18752;SDS011;9505;50.882;5.350;2024-03-02T02:13:05;22.67;;;2.08;;
18752;SDS011;9505;50.882;5.350;2024-03-02T02:15:32;15.30;;;1.48;;
18752;SDS011;9505;50.882;5.350;2024-03-02T02:17:59;14.45;;;1.73;;
18752;SDS011;9505;50.882;5.350;2024-03-02T02:20:25;13.70;;;1.45;;
18752;SDS011;9505;50.882;5.350;2024-03-02T02:25:20;18.88;;;4.20;;
18752;SDS011;9505;50.882;5.350;2024-03-02T02:27:46;10.63;;;1.15;;
18752;SDS011;9505;50.882;5.350;2024-03-02T02:30:11;10.68;;;1.02;;
18752;SDS011;9505;50.882;5.350;2024-03-02T02:32:37;10.85;;;1.05;;
18752;SDS011;9505;50.882;5.350;2024-03-02T02:35:03;6.63;;;1.10;;
18752;SDS011;9505;50.882;5.350;2024-03-02T02:37:29;20.42;;;3.08;;
18752;SDS011;9505;50.882;5.350;2024-03-02T02:39:55;9.07;;;1.00;;
18752;SDS011;9505;50.882;5.350;2024-03-02T02:42:20;10.38;;;0.93;;
18752;SDS011;9505;50.882;5.350;2024-03-02T02:44:46;8.13;;;0.95;;
18752;SDS011;9505;50.882;5.350;2024-03-02T02:47:12;8.55;;;0.93;;
18752;SDS011;9505;50.882;5.350;2024-03-02T02:49:37;7.22;;;0.82;;
18752;SDS011;9505;50.882;5.350;2024-03-02T02:52:03;13.82;;;1.80;;
18752;SDS011;9505;50.882;5.350;2024-03-02T02:54:28;10.98;;;1.13;;
18752;SDS011;9505;50.882;5.350;2024-03-02T02:56:54;9.35;;;0.90;;
18752;SDS011;9505;50.882;5.350;2024-03-02T02:59:19;11.90;;;1.20;;
18752;SDS011;9505;50.882;5.350;2024-03-02T03:01:45;6.35;;;0.75;;
18752;SDS011;9505;50.882;5.350;2024-03-02T03:04:11;13.10;;;1.25;;
18752;SDS011;9505;50.882;5.350;2024-03-02T03:06:37;19.27;;;1.95;;
18752;SDS011;9505;50.882;5.350;2024-03-02T03:09:02;12.38;;;1.20;;
18752;SDS011;9505;50.882;5.350;2024-03-02T03:11:28;14.80;;;1.33;;
18752;SDS011;9505;50.882;5.350;2024-03-02T03:13:54;10.93;;;1.25;;
18752;SDS011;9505;50.882;5.350;2024-03-02T03:16:20;14.65;;;1.92;;
18752;SDS011;9505;50.882;5.350;2024-03-02T03:18:46;21.20;;;1.83;;
18752;SDS011;9505;50.882;5.350;2024-03-02T03:21:11;13.48;;;1.35;;
18752;SDS011;9505;50.882;5.350;2024-03-02T03:23:37;13.25;;;1.30;;
18752;SDS011;9505;50.882;5.350;2024-03-02T03:26:03;9.82;;;1.10;;
18752;SDS011;9505;50.882;5.350;2024-03-02T03:28:29;14.38;;;1.45;;
18752;SDS011;9505;50.882;5.350;2024-03-02T03:30:55;8.10;;;0.85;;
18752;SDS011;9505;50.882;5.350;2024-03-02T03:33:20;8.63;;;0.88;;
18752;SDS011;9505;50.882;5.350;2024-03-02T03:35:46;11.93;;;1.27;;
18752;SDS011;9505;50.882;5.350;2024-03-02T03:38:12;13.75;;;1.33;;
18752;SDS011;9505;50.882;5.350;2024-03-02T03:40:38;10.20;;;1.02;;
18752;SDS011;9505;50.882;5.350;2024-03-02T03:43:03;12.75;;;1.35;;
18752;SDS011;9505;50.882;5.350;2024-03-02T03:45:29;11.40;;;1.02;;
18752;SDS011;9505;50.882;5.350;2024-03-02T03:47:55;7.60;;;0.73;;
18752;SDS011;9505;50.882;5.350;2024-03-02T03:50:21;10.27;;;1.08;;
18752;SDS011;9505;50.882;5.350;2024-03-02T03:52:46;20.13;;;1.80;;
18752;SDS011;9505;50.882;5.350;2024-03-02T03:55:12;11.52;;;1.20;;
18752;SDS011;9505;50.882;5.350;2024-03-02T03:57:38;14.35;;;1.38;;
18752;SDS011;9505;50.882;5.350;2024-03-02T04:00:04;11.02;;;1.10;;
18752;SDS011;9505;50.882;5.350;2024-03-02T04:02:30;12.32;;;1.63;;
18752;SDS011;9505;50.882;5.350;2024-03-02T04:04:55;12.88;;;1.35;;
18752;SDS011;9505;50.882;5.350;2024-03-02T04:07:21;13.35;;;1.73;;
18752;SDS011;9505;50.882;5.350;2024-03-02T04:09:47;22.70;;;2.10;;
18752;SDS011;9505;50.882;5.350;2024-03-02T04:12:12;15.82;;;1.50;;
18752;SDS011;9505;50.882;5.350;2024-03-02T04:14:38;14.52;;;1.98;;
18752;SDS011;9505;50.882;5.350;2024-03-02T04:17:04;14.18;;;1.45;;
18752;SDS011;9505;50.882;5.350;2024-03-02T04:19:30;15.98;;;1.27;;
18752;SDS011;9505;50.882;5.350;2024-03-02T04:21:55;13.30;;;1.35;;
18752;SDS011;9505;50.882;5.350;2024-03-02T04:24:21;12.38;;;1.15;;
18752;SDS011;9505;50.882;5.350;2024-03-02T04:26:46;16.08;;;2.40;;
18752;SDS011;9505;50.882;5.350;2024-03-02T04:29:12;8.50;;;0.93;;
18752;SDS011;9505;50.882;5.350;2024-03-02T04:31:37;15.52;;;2.10;;
18752;SDS011;9505;50.882;5.350;2024-03-02T04:34:03;14.45;;;1.20;;
18752;SDS011;9505;50.882;5.350;2024-03-02T04:36:29;10.68;;;1.17;;
18752;SDS011;9505;50.882;5.350;2024-03-02T04:38:54;18.55;;;2.40;;
18752;SDS011;9505;50.882;5.350;2024-03-02T04:41:20;11.15;;;1.20;;
18752;SDS011;9505;50.882;5.350;2024-03-02T04:43:45;20.00;;;1.80;;
18752;SDS011;9505;50.882;5.350;2024-03-02T04:46:11;10.98;;;1.13;;
18752;SDS011;9505;50.882;5.350;2024-03-02T04:48:37;17.10;;;1.38;;
18752;SDS011;9505;50.882;5.350;2024-03-02T04:51:02;11.73;;;1.10;;
18752;SDS011;9505;50.882;5.350;2024-03-02T04:53:28;9.15;;;1.20;;
18752;SDS011;9505;50.882;5.350;2024-03-02T04:55:54;18.08;;;2.70;;
18752;SDS011;9505;50.882;5.350;2024-03-02T04:58:49;13.45;;;1.67;;
18752;SDS011;9505;50.882;5.350;2024-03-02T05:01:14;15.25;;;1.45;;
18752;SDS011;9505;50.882;5.350;2024-03-02T05:03:42;20.10;;;1.75;;
18752;SDS011;9505;50.882;5.350;2024-03-02T05:06:07;10.32;;;1.77;;
18752;SDS011;9505;50.882;5.350;2024-03-02T05:08:33;9.65;;;0.90;;
18752;SDS011;9505;50.882;5.350;2024-03-02T05:10:59;6.35;;;0.70;;
18752;SDS011;9505;50.882;5.350;2024-03-02T05:13:44;17.67;;;1.77;;
18752;SDS011;9505;50.882;5.350;2024-03-02T05:16:10;15.43;;;1.48;;
18752;SDS011;9505;50.882;5.350;2024-03-02T05:18:37;12.07;;;1.23;;
18752;SDS011;9505;50.882;5.350;2024-03-02T05:21:03;22.95;;;8.70;;
18752;SDS011;9505;50.882;5.350;2024-03-02T05:23:29;17.67;;;1.55;;
18752;SDS011;9505;50.882;5.350;2024-03-02T05:25:54;18.27;;;1.65;;
18752;SDS011;9505;50.882;5.350;2024-03-02T05:28:20;18.15;;;1.75;;
18752;SDS011;9505;50.882;5.350;2024-03-02T05:30:45;13.15;;;1.25;;
18752;SDS011;9505;50.882;5.350;2024-03-02T05:33:11;12.98;;;1.50;;
18752;SDS011;9505;50.882;5.350;2024-03-02T05:35:36;12.65;;;1.25;;
18752;SDS011;9505;50.882;5.350;2024-03-02T05:38:02;13.52;;;1.38;;
18752;SDS011;9505;50.882;5.350;2024-03-02T05:40:28;16.35;;;1.95;;
18752;SDS011;9505;50.882;5.350;2024-03-02T05:42:53;13.20;;;1.45;;
18752;SDS011;9505;50.882;5.350;2024-03-02T05:45:19;11.20;;;1.35;;
18752;SDS011;9505;50.882;5.350;2024-03-02T05:47:44;14.07;;;1.65;;
18752;SDS011;9505;50.882;5.350;2024-03-02T05:50:10;23.05;;;2.00;;
18752;SDS011;9505;50.882;5.350;2024-03-02T05:52:35;13.93;;;1.50;;
18752;SDS011;9505;50.882;5.350;2024-03-02T05:55:01;17.83;;;1.77;;
18752;SDS011;9505;50.882;5.350;2024-03-02T05:57:27;16.27;;;1.45;;
18752;SDS011;9505;50.882;5.350;2024-03-02T06:00:11;27.70;;;2.58;;
18752;SDS011;9505;50.882;5.350;2024-03-02T06:02:39;14.82;;;1.55;;
18752;SDS011;9505;50.882;5.350;2024-03-02T06:05:05;11.38;;;1.20;;
18752;SDS011;9505;50.882;5.350;2024-03-02T06:07:32;8.02;;;1.05;;
18752;SDS011;9505;50.882;5.350;2024-03-02T06:09:57;15.82;;;1.70;;
18752;SDS011;9505;50.882;5.350;2024-03-02T06:12:23;24.90;;;2.20;;
18752;SDS011;9505;50.882;5.350;2024-03-02T06:14:49;15.25;;;1.48;;
18752;SDS011;9505;50.882;5.350;2024-03-02T06:17:14;15.60;;;2.00;;
18752;SDS011;9505;50.882;5.350;2024-03-02T06:19:40;14.95;;;1.83;;
18752;SDS011;9505;50.882;5.350;2024-03-02T06:22:06;18.75;;;1.60;;
18752;SDS011;9505;50.882;5.350;2024-03-02T06:24:31;14.18;;;1.65;;
18752;SDS011;9505;50.882;5.350;2024-03-02T06:26:57;5.95;;;0.73;;
18752;SDS011;9505;50.882;5.350;2024-03-02T06:29:22;9.32;;;1.20;;
18752;SDS011;9505;50.882;5.350;2024-03-02T06:31:48;20.10;;;1.95;;
18752;SDS011;9505;50.882;5.350;2024-03-02T06:34:13;18.02;;;1.85;;
18752;SDS011;9505;50.882;5.350;2024-03-02T06:36:39;23.55;;;2.28;;
18752;SDS011;9505;50.882;5.350;2024-03-02T06:39:06;22.55;;;1.98;;
18752;SDS011;9505;50.882;5.350;2024-03-02T06:41:31;22.05;;;2.03;;
18752;SDS011;9505;50.882;5.350;2024-03-02T06:43:57;26.25;;;2.28;;
18752;SDS011;9505;50.882;5.350;2024-03-02T06:46:25;24.50;;;2.58;;
18752;SDS011;9505;50.882;5.350;2024-03-02T06:48:51;13.90;;;1.45;;
18752;SDS011;9505;50.882;5.350;2024-03-02T06:51:16;16.23;;;1.65;;
18752;SDS011;9505;50.882;5.350;2024-03-02T06:53:42;19.58;;;1.70;;
18752;SDS011;9505;50.882;5.350;2024-03-02T06:56:07;19.63;;;1.85;;
18752;SDS011;9505;50.882;5.350;2024-03-02T06:58:33;15.25;;;1.30;;
18752;SDS011;9505;50.882;5.350;2024-03-02T07:00:59;6.75;;;0.80;;
18752;SDS011;9505;50.882;5.350;2024-03-02T07:03:25;7.80;;;0.93;;
18752;SDS011;9505;50.882;5.350;2024-03-02T07:05:51;9.82;;;1.35;;
18752;SDS011;9505;50.882;5.350;2024-03-02T07:08:16;18.67;;;1.95;;
18752;SDS011;9505;50.882;5.350;2024-03-02T07:10:42;20.98;;;2.17;;
18752;SDS011;9505;50.882;5.350;2024-03-02T07:13:08;18.27;;;1.85;;
18752;SDS011;9505;50.882;5.350;2024-03-02T07:15:33;30.25;;;2.97;;
18752;SDS011;9505;50.882;5.350;2024-03-02T07:18:15;41.53;;;3.30;;
18752;SDS011;9505;50.882;5.350;2024-03-02T07:20:40;114.70;;;9.13;;
18752;SDS011;9505;50.882;5.350;2024-03-02T07:23:06;38.33;;;3.22;;
18752;SDS011;9505;50.882;5.350;2024-03-02T07:25:31;16.40;;;1.63;;
18752;SDS011;9505;50.882;5.350;2024-03-02T07:27:57;65.57;;;5.50;;
18752;SDS011;9505;50.882;5.350;2024-03-02T07:30:23;62.67;;;5.32;;
18752;SDS011;9505;50.882;5.350;2024-03-02T07:32:50;39.08;;;3.28;;
18752;SDS011;9505;50.882;5.350;2024-03-02T07:35:15;24.48;;;2.38;;
18752;SDS011;9505;50.882;5.350;2024-03-02T07:37:41;29.50;;;2.78;;
18752;SDS011;9505;50.882;5.350;2024-03-02T07:40:07;77.22;;;6.72;;
18752;SDS011;9505;50.882;5.350;2024-03-02T07:42:37;83.78;;;6.95;;
18752;SDS011;9505;50.882;5.350;2024-03-02T07:45:06;73.18;;;6.03;;
18752;SDS011;9505;50.882;5.350;2024-03-02T07:47:33;46.83;;;4.22;;
18752;SDS011;9505;50.882;5.350;2024-03-02T07:49:59;30.67;;;2.42;;
18752;SDS011;9505;50.882;5.350;2024-03-02T07:52:25;53.05;;;4.70;;
18752;SDS011;9505;50.882;5.350;2024-03-02T07:54:51;46.78;;;4.25;;
18752;SDS011;9505;50.882;5.350;2024-03-02T07:57:16;43.35;;;3.75;;
18752;SDS011;9505;50.882;5.350;2024-03-02T07:59:42;23.60;;;2.00;;
18752;SDS011;9505;50.882;5.350;2024-03-02T08:02:08;18.13;;;1.95;;
18752;SDS011;9505;50.882;5.350;2024-03-02T08:04:34;67.90;;;5.30;;
18752;SDS011;9505;50.882;5.350;2024-03-02T08:07:01;75.38;;;6.32;;
18752;SDS011;9505;50.882;5.350;2024-03-02T08:09:26;40.60;;;3.35;;
18752;SDS011;9505;50.882;5.350;2024-03-02T08:11:52;13.77;;;1.67;;
18752;SDS011;9505;50.882;5.350;2024-03-02T08:14:17;39.78;;;3.40;;
18752;SDS011;9505;50.882;5.350;2024-03-02T08:16:43;71.65;;;5.63;;
18752;SDS011;9505;50.882;5.350;2024-03-02T08:19:09;63.83;;;5.40;;
18752;SDS011;9505;50.882;5.350;2024-03-02T08:21:35;17.45;;;1.58;;
18752;SDS011;9505;50.882;5.350;2024-03-02T08:24:01;28.63;;;2.28;;
18752;SDS011;9505;50.882;5.350;2024-03-02T08:26:27;66.55;;;6.15;;
18752;SDS011;9505;50.882;5.350;2024-03-02T08:28:57;70.65;;;5.60;;
18752;SDS011;9505;50.882;5.350;2024-03-02T08:31:27;68.07;;;5.55;;
18752;SDS011;9505;50.882;5.350;2024-03-02T08:33:52;37.78;;;3.40;;
18752;SDS011;9505;50.882;5.350;2024-03-02T08:36:18;19.90;;;2.35;;
18752;SDS011;9505;50.882;5.350;2024-03-02T08:38:44;39.45;;;3.83;;
18752;SDS011;9505;50.882;5.350;2024-03-02T08:41:10;78.50;;;6.75;;
18752;SDS011;9505;50.882;5.350;2024-03-02T08:43:38;74.82;;;6.47;;
18752;SDS011;9505;50.882;5.350;2024-03-02T08:46:05;53.25;;;4.78;;
18752;SDS011;9505;50.882;5.350;2024-03-02T08:48:31;21.70;;;2.15;;
18752;SDS011;9505;50.882;5.350;2024-03-02T08:50:56;25.00;;;2.90;;
18752;SDS011;9505;50.882;5.350;2024-03-02T08:53:22;65.68;;;6.07;;
18752;SDS011;9505;50.882;5.350;2024-03-02T08:55:47;47.53;;;4.30;;
18752;SDS011;9505;50.882;5.350;2024-03-02T08:58:13;35.45;;;3.10;;
18752;SDS011;9505;50.882;5.350;2024-03-02T09:00:39;89.88;;;7.47;;
18752;SDS011;9505;50.882;5.350;2024-03-02T09:03:06;59.55;;;5.00;;
18752;SDS011;9505;50.882;5.350;2024-03-02T09:05:32;51.28;;;4.53;;
18752;SDS011;9505;50.882;5.350;2024-03-02T09:07:57;48.33;;;3.88;;
18752;SDS011;9505;50.882;5.350;2024-03-02T09:10:23;22.30;;;2.25;;
18752;SDS011;9505;50.882;5.350;2024-03-02T09:12:49;24.15;;;2.33;;
18752;SDS011;9505;50.882;5.350;2024-03-02T09:15:14;67.78;;;5.78;;
18752;SDS011;9505;50.882;5.350;2024-03-02T09:17:40;67.75;;;5.93;;
18752;SDS011;9505;50.882;5.350;2024-03-02T09:20:06;26.15;;;2.70;;
18752;SDS011;9505;50.882;5.350;2024-03-02T09:22:32;15.48;;;1.45;;
18752;SDS011;9505;50.882;5.350;2024-03-02T09:24:57;50.42;;;4.15;;
18752;SDS011;9505;50.882;5.350;2024-03-02T09:27:23;73.00;;;6.20;;
18752;SDS011;9505;50.882;5.350;2024-03-02T09:29:49;57.75;;;5.53;;
18752;SDS011;9505;50.882;5.350;2024-03-02T09:32:15;27.48;;;3.25;;
18752;SDS011;9505;50.882;5.350;2024-03-02T09:34:40;37.20;;;3.17;;
18752;SDS011;9505;50.882;5.350;2024-03-02T09:37:06;52.78;;;4.38;;
18752;SDS011;9505;50.882;5.350;2024-03-02T09:39:32;54.15;;;5.28;;
18752;SDS011;9505;50.882;5.350;2024-03-02T09:42:01;40.85;;;3.78;;
18752;SDS011;9505;50.882;5.350;2024-03-02T09:44:29;16.73;;;2.13;;
18752;SDS011;9505;50.882;5.350;2024-03-02T09:46:54;20.88;;;2.05;;
18752;SDS011;9505;50.882;5.350;2024-03-02T09:49:20;62.78;;;5.13;;
18752;SDS011;9505;50.882;5.350;2024-03-02T09:51:47;47.63;;;3.97;;
18752;SDS011;9505;50.882;5.350;2024-03-02T09:54:13;51.40;;;4.70;;
18752;SDS011;9505;50.882;5.350;2024-03-02T09:56:41;23.95;;;2.35;;
18752;SDS011;9505;50.882;5.350;2024-03-02T09:59:06;14.38;;;1.52;;
18752;SDS011;9505;50.882;5.350;2024-03-02T10:01:32;51.75;;;4.40;;
18752;SDS011;9505;50.882;5.350;2024-03-02T10:04:01;14.02;;;1.80;;
18752;SDS011;9505;50.882;5.350;2024-03-02T10:06:29;58.47;;;4.75;;
18752;SDS011;9505;50.882;5.350;2024-03-02T10:08:55;15.55;;;1.83;;
18752;SDS011;9505;50.882;5.350;2024-03-02T10:14:04;12.10;;;1.58;;
18752;SDS011;9505;50.882;5.350;2024-03-02T10:16:30;11.90;;;1.40;;
18752;SDS011;9505;50.882;5.350;2024-03-02T10:18:55;12.75;;;1.45;;
18752;SDS011;9505;50.882;5.350;2024-03-02T10:21:21;15.65;;;1.92;;
18752;SDS011;9505;50.882;5.350;2024-03-02T10:23:49;13.75;;;1.70;;
18752;SDS011;9505;50.882;5.350;2024-03-02T10:26:18;24.30;;;2.70;;
18752;SDS011;9505;50.882;5.350;2024-03-02T10:28:46;9.93;;;1.10;;
18752;SDS011;9505;50.882;5.350;2024-03-02T10:31:12;24.27;;;2.33;;
18752;SDS011;9505;50.882;5.350;2024-03-02T10:33:39;10.48;;;1.23;;
18752;SDS011;9505;50.882;5.350;2024-03-02T10:36:05;15.25;;;1.58;;
18752;SDS011;9505;50.882;5.350;2024-03-02T10:38:31;18.90;;;1.88;;
18752;SDS011;9505;50.882;5.350;2024-03-02T10:40:57;13.70;;;1.60;;
18752;SDS011;9505;50.882;5.350;2024-03-02T10:43:24;17.27;;;2.00;;
18752;SDS011;9505;50.882;5.350;2024-03-02T10:45:51;14.60;;;1.60;;
18752;SDS011;9505;50.882;5.350;2024-03-02T10:48:19;13.48;;;1.45;;
18752;SDS011;9505;50.882;5.350;2024-03-02T10:50:46;22.60;;;2.05;;
18752;SDS011;9505;50.882;5.350;2024-03-02T10:53:12;24.60;;;2.67;;
18752;SDS011;9505;50.882;5.350;2024-03-02T10:55:37;19.90;;;2.10;;
18752;SDS011;9505;50.882;5.350;2024-03-02T10:58:04;18.20;;;1.58;;
18752;SDS011;9505;50.882;5.350;2024-03-02T11:00:33;14.10;;;1.83;;
18752;SDS011;9505;50.882;5.350;2024-03-02T11:03:08;14.65;;;1.42;;
18752;SDS011;9505;50.882;5.350;2024-03-02T11:05:38;18.20;;;1.90;;
18752;SDS011;9505;50.882;5.350;2024-03-02T11:08:07;19.67;;;2.10;;
18752;SDS011;9505;50.882;5.350;2024-03-02T11:10:37;16.25;;;1.75;;
18752;SDS011;9505;50.882;5.350;2024-03-02T11:13:11;15.00;;;1.50;;
18752;SDS011;9505;50.882;5.350;2024-03-02T11:15:37;17.60;;;1.75;;
18752;SDS011;9505;50.882;5.350;2024-03-02T11:18:06;15.52;;;1.85;;
18752;SDS011;9505;50.882;5.350;2024-03-02T11:20:35;18.98;;;1.92;;
18752;SDS011;9505;50.882;5.350;2024-03-02T11:23:06;82.97;;;7.55;;
18752;SDS011;9505;50.882;5.350;2024-03-02T11:25:34;72.68;;;6.03;;
18752;SDS011;9505;50.882;5.350;2024-03-02T11:28:07;70.18;;;6.07;;
18752;SDS011;9505;50.882;5.350;2024-03-02T11:33:03;58.55;;;5.53;;
18752;SDS011;9505;50.882;5.350;2024-03-02T11:35:33;42.83;;;3.67;;
18752;SDS011;9505;50.882;5.350;2024-03-02T11:38:05;37.88;;;3.38;;
18752;SDS011;9505;50.882;5.350;2024-03-02T11:40:32;14.02;;;1.70;;
18752;SDS011;9505;50.882;5.350;2024-03-02T11:43:01;24.08;;;2.45;;
18752;SDS011;9505;50.882;5.350;2024-03-02T11:45:27;68.65;;;6.10;;
18752;SDS011;9505;50.882;5.350;2024-03-02T11:47:59;59.10;;;5.32;;
18752;SDS011;9505;50.882;5.350;2024-03-02T11:50:29;78.47;;;6.75;;
18752;SDS011;9505;50.882;5.350;2024-03-02T11:52:55;68.63;;;6.20;;
18752;SDS011;9505;50.882;5.350;2024-03-02T11:55:23;47.72;;;4.60;;
18752;SDS011;9505;50.882;5.350;2024-03-02T11:57:54;33.97;;;3.17;;
18752;SDS011;9505;50.882;5.350;2024-03-02T12:00:20;22.65;;;2.15;;
18752;SDS011;9505;50.882;5.350;2024-03-02T12:02:46;31.05;;;3.42;;
18752;SDS011;9505;50.882;5.350;2024-03-02T12:05:38;63.33;;;5.53;;
18752;SDS011;9505;50.882;5.350;2024-03-02T12:08:07;49.97;;;4.70;;
18752;SDS011;9505;50.882;5.350;2024-03-02T12:10:34;25.70;;;2.60;;
18752;SDS011;9505;50.882;5.350;2024-03-02T12:13:04;33.92;;;2.90;;
18752;SDS011;9505;50.882;5.350;2024-03-02T12:15:38;20.77;;;2.25;;
18752;SDS011;9505;50.882;5.350;2024-03-02T12:18:05;16.13;;;1.45;;
18752;SDS011;9505;50.882;5.350;2024-03-02T12:20:31;43.53;;;3.97;;
18752;SDS011;9505;50.882;5.350;2024-03-02T12:22:58;77.63;;;6.57;;
18752;SDS011;9505;50.882;5.350;2024-03-02T12:25:26;59.53;;;5.32;;
18752;SDS011;9505;50.882;5.350;2024-03-02T12:27:56;47.55;;;4.72;;
18752;SDS011;9505;50.882;5.350;2024-03-02T12:30:23;38.58;;;3.63;;
18752;SDS011;9505;50.882;5.350;2024-03-02T12:32:49;15.63;;;1.85;;
18752;SDS011;9505;50.882;5.350;2024-03-02T12:35:15;39.63;;;3.75;;
18752;SDS011;9505;50.882;5.350;2024-03-02T12:40:10;73.57;;;6.88;;
18752;SDS011;9505;50.882;5.350;2024-03-02T12:42:37;35.00;;;3.30;;
18752;SDS011;9505;50.882;5.350;2024-03-02T12:45:03;14.88;;;1.52;;
18752;SDS011;9505;50.882;5.350;2024-03-02T12:47:29;31.92;;;3.15;;
18752;SDS011;9505;50.882;5.350;2024-03-02T12:49:55;46.40;;;4.43;;
18752;SDS011;9505;50.882;5.350;2024-03-02T12:52:21;80.90;;;7.07;;
18752;SDS011;9505;50.882;5.350;2024-03-02T12:54:47;36.53;;;3.53;;
18752;SDS011;9505;50.882;5.350;2024-03-02T12:57:20;13.90;;;1.67;;
18752;SDS011;9505;50.882;5.350;2024-03-02T12:59:45;17.17;;;1.88;;
18752;SDS011;9505;50.882;5.350;2024-03-02T13:02:18;50.38;;;4.93;;
18752;SDS011;9505;50.882;5.350;2024-03-02T13:04:44;37.75;;;3.65;;
18752;SDS011;9505;50.882;5.350;2024-03-02T13:07:19;19.17;;;1.90;;
18752;SDS011;9505;50.882;5.350;2024-03-02T13:09:45;58.03;;;5.10;;
18752;SDS011;9505;50.882;5.350;2024-03-02T13:12:11;71.15;;;6.18;;
18752;SDS011;9505;50.882;5.350;2024-03-02T13:14:37;81.90;;;7.05;;
18752;SDS011;9505;50.882;5.350;2024-03-02T13:17:02;17.27;;;1.88;;
18752;SDS011;9505;50.882;5.350;2024-03-02T13:19:30;18.55;;;2.00;;
18752;SDS011;9505;50.882;5.350;2024-03-02T13:21:57;64.70;;;5.85;;
18752;SDS011;9505;50.882;5.350;2024-03-02T13:24:23;60.67;;;5.15;;
18752;SDS011;9505;50.882;5.350;2024-03-02T13:26:53;45.58;;;4.20;;
18752;SDS011;9505;50.882;5.350;2024-03-02T13:29:21;31.73;;;3.45;;
18752;SDS011;9505;50.882;5.350;2024-03-02T13:31:47;36.85;;;3.47;;
18752;SDS011;9505;50.882;5.350;2024-03-02T13:34:13;29.73;;;2.92;;
18752;SDS011;9505;50.882;5.350;2024-03-02T13:36:39;101.85;;;8.38;;
18752;SDS011;9505;50.882;5.350;2024-03-02T13:39:04;63.83;;;5.63;;
18752;SDS011;9505;50.882;5.350;2024-03-02T13:41:31;22.80;;;2.15;;
18752;SDS011;9505;50.882;5.350;2024-03-02T13:43:57;28.08;;;2.78;;
18752;SDS011;9505;50.882;5.350;2024-03-02T13:46:26;29.38;;;2.75;;
18752;SDS011;9505;50.882;5.350;2024-03-02T13:48:52;57.83;;;5.13;;
18752;SDS011;9505;50.882;5.350;2024-03-02T13:51:17;64.68;;;6.10;;
18752;SDS011;9505;50.882;5.350;2024-03-02T13:53:43;29.38;;;2.65;;
18752;SDS011;9505;50.882;5.350;2024-03-02T13:56:09;28.67;;;2.67;;
18752;SDS011;9505;50.882;5.350;2024-03-02T13:58:34;48.38;;;4.40;;
18752;SDS011;9505;50.882;5.350;2024-03-02T14:01:00;57.00;;;5.00;;
18752;SDS011;9505;50.882;5.350;2024-03-02T14:03:29;65.53;;;5.97;;
18752;SDS011;9505;50.882;5.350;2024-03-02T14:05:55;22.77;;;2.25;;
18752;SDS011;9505;50.882;5.350;2024-03-02T14:08:21;19.77;;;2.08;;
18752;SDS011;9505;50.882;5.350;2024-03-02T14:10:46;45.50;;;4.00;;
18752;SDS011;9505;50.882;5.350;2024-03-02T14:13:12;95.07;;;8.13;;
18752;SDS011;9505;50.882;5.350;2024-03-02T14:15:38;42.40;;;3.78;;
18752;SDS011;9505;50.882;5.350;2024-03-02T14:18:05;22.23;;;2.17;;
18752;SDS011;9505;50.882;5.350;2024-03-02T14:20:31;15.05;;;1.77;;
18752;SDS011;9505;50.882;5.350;2024-03-02T14:22:58;43.15;;;3.80;;
18752;SDS011;9505;50.882;5.350;2024-03-02T14:25:24;74.20;;;6.32;;
18752;SDS011;9505;50.882;5.350;2024-03-02T14:27:50;59.72;;;5.28;;
18752;SDS011;9505;50.882;5.350;2024-03-02T14:30:16;28.52;;;2.90;;
18752;SDS011;9505;50.882;5.350;2024-03-02T14:32:42;15.68;;;1.77;;
18752;SDS011;9505;50.882;5.350;2024-03-02T14:35:08;46.85;;;4.07;;
18752;SDS011;9505;50.882;5.350;2024-03-02T14:37:37;74.70;;;6.65;;
18752;SDS011;9505;50.882;5.350;2024-03-02T14:40:02;70.55;;;6.50;;
18752;SDS011;9505;50.882;5.350;2024-03-02T14:42:31;76.90;;;6.72;;
18752;SDS011;9505;50.882;5.350;2024-03-02T14:44:57;22.75;;;2.33;;
18752;SDS011;9505;50.882;5.350;2024-03-02T14:47:23;21.40;;;2.10;;
18752;SDS011;9505;50.882;5.350;2024-03-02T14:49:49;37.00;;;3.35;;
18752;SDS011;9505;50.882;5.350;2024-03-02T14:52:15;80.50;;;6.68;;
18752;SDS011;9505;50.882;5.350;2024-03-02T14:54:43;72.10;;;5.97;;
18752;SDS011;9505;50.882;5.350;2024-03-02T14:57:09;61.72;;;5.22;;